Overview Statistics Trail Chart Weather Telemetry Raw packets
 

This is the latest recevied weather packets stored in our database for station/object W7BTL. If no packets are shown the sender has not sent any weather packets the latest 10 day(s).

<< 4 5 6 7 8 9 10 >>
Time Temp. Humidity Pressure Rain* Wind** Luminosity Snow
1788624187 25° C 65% 1013.9 hPa 0 mm - 381 W/m² -
1788623882 24.44° C 68% 1013.7 hPa 0 mm - 354 W/m² -
1788623581 23.33° C 70% 1014 hPa 0 mm - 331 W/m² -
1788623281 22.78° C 73% 1013.9 hPa 0 mm - 310 W/m² -
1788622977 22.78° C 75% 1013.6 hPa 0 mm - 288 W/m² -
1788622672 23.33° C 73% 1013.9 hPa 0 mm - 282 W/m² -
1788622368 24.44° C 68% 1013.7 hPa 0 mm - 245 W/m² -
1788622063 23.89° C 69% 1013.7 hPa 0 mm - 199 W/m² -
1788621762 22.78° C 73% 1013.6 hPa 0 mm - 169 W/m² -
1788621462 22.22° C 77% 1013.6 hPa 0 mm - 148 W/m² -
1788621158 22.78° C 77% 1013.6 hPa 0 mm - 131 W/m² -
1788620858 22.78° C 76% 1013.6 hPa 0 mm - 123 W/m² -
1788620557 21.67° C 78% 1013.4 hPa 0 mm - 117 W/m² -
1788620255 21.67° C 79% 1013.4 hPa 0 mm - 114 W/m² -
1788619950 20.56° C 82% 1013.4 hPa 0 mm - 108 W/m² -
1788619649 20.56° C 83% 1013.5 hPa 0 mm - 101 W/m² -
1788619344 20° C 85% 1013.5 hPa 0 mm - 94 W/m² -
1788619044 20° C 85% 1013.2 hPa 0 mm - 73 W/m² -
1788618743 20.56° C 86% 1013.4 hPa 0 mm - 66 W/m² -
1788618441 19.44° C 90% 1013.4 hPa 0 mm - 69 W/m² -
1788618136 18.89° C 95% 1013.3 hPa 0 mm - 63 W/m² -
1788617832 18.33° C 97% 1013.3 hPa 0 mm - 55 W/m² -
1788617528 17.78° C 97% 1013.3 hPa 0 mm - 48 W/m² -
1788617222 17.22° C 97% 1013.2 hPa 0 mm - 40 W/m² -
1788616917 16.67° C 97% 1013.2 hPa 0 mm - 33 W/m² -

* Rain latest hour (hover to see other rain measurements)
** Current wind speed in m/s (hover to see current wind gust speed)